Time;durP1;ratioP1;P1;durP2;ratioP2;P2;SDS_P1;SDS_P2;PMS_P1;PMS_P2;Temp;Humidity;BMP_temperature;BMP_pressure;BME280_temperature;BME280_humidity;BME280_pressure;Samples;Min_cycle;Max_cycle;Signal;HPM_P1;HPM_P2
2021/09/20 00:00:32;;;;;;;19.23;17.13;;;15.90;99.90;;;;;;5019007;28;20026;-79
2021/09/20 00:02:57;;;;;;;18.73;16.73;;;16.00;99.90;;;;;;5020575;28;20402;-80
2021/09/20 00:05:23;;;;;;;17.10;15.30;;;16.00;99.90;;;;;;5020866;28;20034;-80
2021/09/20 00:07:49;;;;;;;16.38;14.18;;;16.10;99.90;;;;;;5020516;28;20029;-80
2021/09/20 00:10:15;;;;;;;17.98;15.10;;;15.90;99.90;;;;;;5019640;28;20497;-79
2021/09/20 00:12:41;;;;;;;17.92;16.00;;;15.90;99.90;;;;;;5020931;28;20021;-80
2021/09/20 00:15:08;;;;;;;17.75;15.90;;;15.80;99.90;;;;;;5019154;28;20487;-80
2021/09/20 00:17:34;;;;;;;18.80;15.68;;;15.80;99.90;;;;;;5020140;28;20049;-79
2021/09/20 00:19:59;;;;;;;19.08;16.25;;;15.90;99.90;;;;;;5019449;28;20028;-80
2021/09/20 00:22:25;;;;;;;20.23;16.98;;;15.90;99.90;;;;;;5019248;28;20125;-79
2021/09/20 00:24:51;;;;;;;18.52;15.95;;;15.80;99.90;;;;;;5020588;28;20439;-79
2021/09/20 00:27:17;;;;;;;17.27;14.32;;;15.70;99.90;;;;;;5019213;28;20033;-80
2021/09/20 00:29:42;;;;;;;16.98;14.68;;;15.50;99.90;;;;;;5020734;28;20022;-80
2021/09/20 00:32:08;;;;;;;16.60;14.90;;;15.50;99.90;;;;;;5020040;28;20030;-80
2021/09/20 00:34:34;;;;;;;19.27;15.35;;;15.50;99.90;;;;;;5018849;28;20034;-80
2021/09/20 00:36:59;;;;;;;18.45;15.48;;;15.60;99.90;;;;;;5018644;28;20101;-80
2021/09/20 00:39:25;;;;;;;19.77;15.95;;;15.40;99.90;;;;;;5020427;28;20115;-80
2021/09/20 00:41:51;;;;;;;21.15;15.85;;;15.30;99.90;;;;;;5019269;28;20034;-80
2021/09/20 00:44:16;;;;;;;20.83;16.55;;;15.20;99.90;;;;;;5022058;28;20022;-80
2021/09/20 00:46:42;;;;;;;18.35;16.45;;;15.30;99.90;;;;;;5019363;28;20033;-80
2021/09/20 00:49:08;;;;;;;20.38;16.83;;;15.40;99.90;;;;;;5018657;28;20374;-80
2021/09/20 00:51:33;;;;;;;18.00;15.45;;;15.30;99.90;;;;;;5018349;28;20026;-80
2021/09/20 00:53:59;;;;;;;18.27;15.02;;;15.30;99.90;;;;;;5019963;28;20058;-80
2021/09/20 00:56:27;;;;;;;15.88;13.95;;;15.30;99.90;;;;;;5018663;28;20479;-80
2021/09/20 00:58:53;;;;;;;18.92;14.88;;;15.20;99.90;;;;;;5022760;28;20033;-80
2021/09/20 01:01:19;;;;;;;19.75;17.27;;;15.30;99.90;;;;;;5021022;28;20026;-80
2021/09/20 01:03:44;;;;;;;27.35;17.98;;;15.60;99.90;;;;;;5017618;28;20041;-80
2021/09/20 01:06:10;;;;;;;18.17;16.13;;;15.40;99.90;;;;;;5018770;28;20065;-80
2021/09/20 01:08:36;;;;;;;20.10;17.08;;;15.30;99.90;;;;;;5017145;28;20026;-80
2021/09/20 01:11:01;;;;;;;20.35;16.85;;;15.30;99.90;;;;;;5018482;28;20133;-80
2021/09/20 01:13:27;;;;;;;19.50;16.00;;;15.20;99.90;;;;;;5018209;28;20036;-80
2021/09/20 01:15:53;;;;;;;18.38;15.88;;;15.10;99.90;;;;;;5019200;28;20030;-80
2021/09/20 01:18:20;;;;;;;17.00;13.98;;;15.10;99.90;;;;;;5018370;28;20071;-80
2021/09/20 01:20:45;;;;;;;15.95;13.55;;;14.90;99.90;;;;;;5017833;28;20064;-80
2021/09/20 01:23:11;;;;;;;19.35;14.50;;;14.80;99.90;;;;;;5018883;28;20391;-80
2021/09/20 01:25:37;;;;;;;18.00;14.32;;;14.70;99.90;;;;;;5018141;28;20025;-80
2021/09/20 01:28:04;;;;;;;18.10;15.70;;;14.80;99.90;;;;;;5018206;28;20382;-79
2021/09/20 01:30:30;;;;;;;21.45;15.20;;;14.90;99.90;;;;;;5019101;28;20454;-80
2021/09/20 01:32:56;;;;;;;21.58;18.15;;;15.10;99.90;;;;;;5017945;28;20100;-80
2021/09/20 01:35:23;;;;;;;20.50;16.73;;;15.10;99.90;;;;;;5017819;28;20060;-80
2021/09/20 01:37:49;;;;;;;21.05;16.65;;;15.10;99.90;;;;;;5016447;28;20088;-80
2021/09/20 01:40:15;;;;;;;22.00;16.83;;;15.00;99.90;;;;;;5018160;28;20026;-80
2021/09/20 01:42:42;;;;;;;21.60;15.68;;;14.90;99.90;;;;;;5018941;28;20022;-80
2021/09/20 01:45:09;;;;;;;18.02;13.88;;;14.90;99.90;;;;;;5017665;28;20159;-80
2021/09/20 01:47:35;;;;;;;20.95;15.55;;;14.60;99.90;;;;;;5017908;28;20065;-79
2021/09/20 01:50:01;;;;;;;22.13;15.45;;;14.70;99.90;;;;;;5018428;28;20462;-79
2021/09/20 01:52:27;;;;;;;17.30;15.20;;;14.70;99.90;;;;;;5020454;28;20022;-80
2021/09/20 01:54:53;;;;;;;18.92;14.98;;;14.70;99.90;;;;;;5008150;28;20521;-79
2021/09/20 01:57:22;;;;;;;19.30;15.68;;;14.70;99.90;;;;;;5015364;28;20034;-80
2021/09/20 01:59:48;;;;;;;18.98;14.43;;;14.60;99.90;;;;;;5015593;28;20467;-79
2021/09/20 02:02:14;;;;;;;16.77;13.63;;;14.50;99.90;;;;;;5015694;28;20491;-79
2021/09/20 02:04:40;;;;;;;15.25;13.65;;;14.40;99.90;;;;;;5016941;28;20022;-80
2021/09/20 02:07:05;;;;;;;17.00;14.27;;;14.40;99.90;;;;;;5014879;28;20022;-80
2021/09/20 02:09:31;;;;;;;15.48;13.65;;;14.40;99.90;;;;;;5016015;28;20068;-79
2021/09/20 02:11:56;;;;;;;16.98;14.07;;;14.20;99.90;;;;;;5017020;28;20486;-80
2021/09/20 02:14:22;;;;;;;14.88;13.32;;;14.20;99.90;;;;;;5016324;28;20069;-80
2021/09/20 02:16:48;;;;;;;18.23;15.18;;;14.20;99.90;;;;;;5018075;28;20026;-80
2021/09/20 02:19:14;;;;;;;19.92;15.57;;;14.30;99.90;;;;;;5016203;28;20033;-80
2021/09/20 02:21:40;;;;;;;19.40;16.60;;;14.30;99.90;;;;;;5016706;28;20038;-80
2021/09/20 02:24:06;;;;;;;20.98;15.90;;;14.40;99.90;;;;;;5014611;28;20022;-80
2021/09/20 02:26:32;;;;;;;16.55;14.75;;;14.30;99.90;;;;;;5014762;28;20014;-80
2021/09/20 02:28:57;;;;;;;19.20;14.07;;;14.30;99.90;;;;;;5014369;28;20025;-80
2021/09/20 02:31:23;;;;;;;18.38;14.82;;;14.40;99.90;;;;;;5015440;28;20042;-80
2021/09/20 02:33:49;;;;;;;19.98;16.63;;;14.40;99.90;;;;;;5015673;28;20089;-80
2021/09/20 02:36:16;;;;;;;18.73;16.50;;;14.50;99.90;;;;;;5015198;28;20029;-81
2021/09/20 02:38:41;;;;;;;19.23;16.25;;;14.70;99.90;;;;;;5014661;28;20030;-80
2021/09/20 02:41:08;;;;;;;20.55;16.23;;;14.80;99.90;;;;;;5014119;28;20037;-79
2021/09/20 02:43:34;;;;;;;16.58;14.82;;;14.60;99.90;;;;;;5017823;28;20029;-80
2021/09/20 02:46:00;;;;;;;18.98;14.27;;;14.50;99.90;;;;;;5015589;28;20022;-81
2021/09/20 02:48:26;;;;;;;17.10;14.27;;;14.40;99.90;;;;;;5015965;28;20418;-80
2021/09/20 02:50:51;;;;;;;16.70;14.52;;;14.40;99.90;;;;;;5014713;28;20041;-80
2021/09/20 02:53:17;;;;;;;18.00;14.23;;;14.40;99.90;;;;;;5016278;28;20514;-80
2021/09/20 02:55:43;;;;;;;18.40;13.82;;;14.40;99.90;;;;;;5016992;28;20116;-80
2021/09/20 02:58:09;;;;;;;18.45;13.88;;;14.30;99.90;;;;;;5014064;28;20059;-80
2021/09/20 03:00:35;;;;;;;15.55;13.35;;;14.30;99.90;;;;;;5014076;28;20033;-80
2021/09/20 03:03:01;;;;;;;18.05;13.82;;;14.20;99.90;;;;;;5014694;28;20113;-80
2021/09/20 03:05:27;;;;;;;16.30;13.77;;;14.20;99.90;;;;;;5014537;28;20030;-80
2021/09/20 03:07:53;;;;;;;17.17;14.48;;;14.20;99.90;;;;;;5013472;28;20034;-79
2021/09/20 03:10:19;;;;;;;18.55;13.77;;;14.30;99.90;;;;;;5014957;28;20026;-79
2021/09/20 03:12:45;;;;;;;15.55;13.02;;;14.20;99.90;;;;;;5013461;28;20018;-80
2021/09/20 03:15:11;;;;;;;16.35;12.98;;;14.00;99.90;;;;;;5013320;28;20034;-80
2021/09/20 03:17:37;;;;;;;16.05;14.00;;;13.90;99.90;;;;;;5013084;28;20029;-80
2021/09/20 03:20:04;;;;;;;17.70;15.00;;;13.90;99.90;;;;;;5012467;28;20363;-79
2021/09/20 03:22:29;;;;;;;17.98;15.80;;;14.00;99.90;;;;;;5012380;28;20065;-79
2021/09/20 03:24:55;;;;;;;17.83;15.23;;;14.00;99.90;;;;;;5012717;28;20030;-79
2021/09/20 03:27:21;;;;;;;19.20;16.02;;;14.00;99.90;;;;;;5012480;28;20026;-80
2021/09/20 03:29:46;;;;;;;17.15;15.23;;;14.10;99.90;;;;;;5013790;28;20379;-79
2021/09/20 03:32:12;;;;;;;18.30;15.10;;;14.10;99.90;;;;;;5015208;28;20033;-80
2021/09/20 03:34:38;;;;;;;18.48;15.10;;;14.10;99.90;;;;;;5012521;28;20029;-80
2021/09/20 03:37:03;;;;;;;17.77;14.57;;;14.20;99.90;;;;;;5013627;28;20041;-79
2021/09/20 03:39:29;;;;;;;16.90;13.55;;;14.30;99.90;;;;;;5014060;28;20066;-80
2021/09/20 03:41:55;;;;;;;15.30;13.57;;;14.20;99.90;;;;;;5014464;28;20324;-80
2021/09/20 03:44:21;;;;;;;15.88;14.15;;;14.30;99.90;;;;;;5015997;28;20030;-79
2021/09/20 03:46:47;;;;;;;17.17;14.27;;;14.20;99.90;;;;;;5020018;28;20080;-80
2021/09/20 03:49:14;;;;;;;17.00;13.90;;;14.30;99.90;;;;;;5018598;28;20018;-80
2021/09/20 03:51:40;;;;;;;15.43;13.40;;;14.20;99.90;;;;;;5018249;28;20101;-80
2021/09/20 03:54:05;;;;;;;17.73;13.50;;;14.20;99.90;;;;;;5018672;28;20117;-80
2021/09/20 03:56:31;;;;;;;17.67;14.32;;;14.10;99.90;;;;;;5019010;28;20026;-80
2021/09/20 03:58:56;;;;;;;17.10;14.18;;;14.10;99.90;;;;;;5018131;28;20056;-80
2021/09/20 04:01:22;;;;;;;16.70;14.00;;;14.10;99.90;;;;;;5017737;28;20061;-80
2021/09/20 04:03:48;;;;;;;14.73;13.10;;;13.90;99.90;;;;;;5018144;28;20479;-80
2021/09/20 04:06:14;;;;;;;15.30;13.70;;;13.90;99.90;;;;;;5018106;28;20426;-80
2021/09/20 04:08:40;;;;;;;17.00;13.30;;;13.90;99.90;;;;;;5017685;28;20041;-80
2021/09/20 04:11:06;;;;;;;18.13;13.98;;;13.90;99.90;;;;;;5018587;28;20383;-80
2021/09/20 04:13:32;;;;;;;15.77;13.55;;;13.90;99.90;;;;;;5018664;28;20029;-80
2021/09/20 04:15:57;;;;;;;17.08;13.50;;;13.90;99.90;;;;;;5017434;28;20432;-80
2021/09/20 04:18:26;;;;;;;15.73;12.15;;;13.80;99.90;;;;;;5018639;28;20120;-80
2021/09/20 04:20:52;;;;;;;15.43;13.63;;;13.80;99.90;;;;;;5017882;28;20054;-80
2021/09/20 04:23:19;;;;;;;19.10;14.63;;;13.80;99.90;;;;;;5016937;28;20028;-80
2021/09/20 04:25:47;;;;;;;18.67;15.05;;;13.80;99.90;;;;;;5017412;28;20112;-80
2021/09/20 04:28:12;;;;;;;20.55;15.88;;;13.80;99.90;;;;;;5017746;28;20097;-81
2021/09/20 04:30:40;;;;;;;17.75;15.55;;;13.70;99.90;;;;;;5017904;28;20053;-80
2021/09/20 04:33:06;;;;;;;19.20;15.65;;;13.70;99.90;;;;;;5017941;28;20067;-80
2021/09/20 04:35:31;;;;;;;23.13;16.67;;;13.70;99.90;;;;;;5017994;28;20053;-80
2021/09/20 04:37:57;;;;;;;19.88;14.85;;;13.70;99.90;;;;;;5018816;28;20148;-81
2021/09/20 04:40:23;;;;;;;21.27;16.23;;;13.70;99.90;;;;;;5017962;28;20093;-80
2021/09/20 04:42:48;;;;;;;22.27;16.02;;;13.70;99.90;;;;;;5017457;28;20029;-80
2021/09/20 04:45:14;;;;;;;19.98;15.75;;;13.60;99.90;;;;;;5018974;28;20080;-80
2021/09/20 04:47:40;;;;;;;28.00;17.35;;;13.60;99.90;;;;;;5017448;28;20025;-80
2021/09/20 04:50:06;;;;;;;22.60;17.35;;;13.80;99.90;;;;;;5018188;28;20034;-80
2021/09/20 04:52:31;;;;;;;20.80;16.40;;;13.90;99.90;;;;;;5017414;28;20037;-80
2021/09/20 04:54:57;;;;;;;26.48;17.65;;;13.80;99.90;;;;;;5017368;28;20054;-80
2021/09/20 04:57:23;;;;;;;28.20;18.83;;;13.90;99.90;;;;;;5016791;28;20037;-83
2021/09/20 04:59:48;;;;;;;24.23;18.42;;;13.90;99.90;;;;;;5017634;28;20065;-83
2021/09/20 05:02:14;;;;;;;22.80;17.70;;;14.00;99.90;;;;;;5018679;28;20030;-83
2021/09/20 05:04:40;;;;;;;28.58;18.38;;;13.90;99.90;;;;;;5020037;28;20029;-82
2021/09/20 05:07:05;;;;;;;29.45;19.80;;;13.90;99.90;;;;;;5019492;28;20057;-83
2021/09/20 05:09:31;;;;;;;24.83;17.88;;;14.00;99.90;;;;;;5018885;28;20378;-83
2021/09/20 05:11:56;;;;;;;24.50;16.90;;;13.80;99.90;;;;;;5019865;28;20471;-80
2021/09/20 05:14:22;;;;;;;25.02;17.08;;;13.60;99.90;;;;;;5019095;28;20535;-81
2021/09/20 05:16:49;;;;;;;28.00;16.63;;;13.70;99.90;;;;;;5003600;28;20033;-80
2021/09/20 05:19:15;;;;;;;28.67;17.13;;;13.80;99.90;;;;;;5023001;28;20049;-79
2021/09/20 05:21:40;;;;;;;22.38;15.68;;;13.80;99.90;;;;;;5020244;28;20021;-79
2021/09/20 05:24:06;;;;;;;19.80;14.77;;;13.80;99.90;;;;;;5018355;28;20463;-79
2021/09/20 05:26:32;;;;;;;22.98;14.40;;;13.60;99.90;;;;;;5017713;28;20101;-79
2021/09/20 05:28:58;;;;;;;20.60;14.32;;;13.60;99.90;;;;;;5016943;28;20038;-79
2021/09/20 05:31:23;;;;;;;19.55;15.60;;;13.70;99.90;;;;;;5017290;28;20095;-82
2021/09/20 05:33:49;;;;;;;21.65;15.23;;;13.80;99.90;;;;;;5016146;28;20116;-81
2021/09/20 05:36:15;;;;;;;22.75;15.18;;;14.10;99.90;;;;;;5015767;28;20050;-79
2021/09/20 05:38:40;;;;;;;21.33;14.40;;;14.10;99.90;;;;;;5015764;28;20038;-79
2021/09/20 05:41:07;;;;;;;20.88;14.43;;;14.10;99.90;;;;;;5016026;28;20053;-80
2021/09/20 05:43:32;;;;;;;19.95;14.85;;;14.10;99.90;;;;;;5017615;28;20444;-79
2021/09/20 05:45:58;;;;;;;20.95;14.88;;;14.30;99.90;;;;;;5016720;28;20034;-80
2021/09/20 05:48:24;;;;;;;24.30;14.80;;;14.40;99.90;;;;;;5012347;28;20543;-80
2021/09/20 05:50:50;;;;;;;19.25;14.77;;;14.40;99.90;;;;;;5016233;28;20026;-81
2021/09/20 05:53:16;;;;;;;20.80;14.57;;;14.40;99.90;;;;;;5015230;28;20117;-80
2021/09/20 05:55:41;;;;;;;21.30;14.32;;;14.30;99.90;;;;;;5013331;28;20030;-81
2021/09/20 05:58:07;;;;;;;19.52;13.70;;;14.20;99.90;;;;;;5019272;28;20104;-82
2021/09/20 06:00:34;;;;;;;18.77;13.82;;;14.30;99.90;;;;;;5010897;28;20036;-80
2021/09/20 06:03:00;;;;;;;18.95;13.52;;;14.30;99.90;;;;;;5017246;28;20018;-80
2021/09/20 06:05:26;;;;;;;19.30;14.38;;;14.50;99.90;;;;;;5015091;28;20056;-80
2021/09/20 06:07:52;;;;;;;21.73;13.68;;;14.60;99.90;;;;;;5010681;28;20049;-79
2021/09/20 06:10:18;;;;;;;18.42;13.27;;;14.60;99.90;;;;;;5009467;28;20026;-80
2021/09/20 06:12:47;;;;;;;19.58;12.68;;;14.50;99.90;;;;;;5016655;28;20034;-79
2021/09/20 06:15:15;;;;;;;18.00;13.05;;;14.50;99.90;;;;;;5008844;28;20041;-79
2021/09/20 06:17:42;;;;;;;17.92;12.77;;;14.60;99.90;;;;;;5016783;28;20053;-84
2021/09/20 06:20:12;;;;;;;18.77;13.15;;;14.60;99.90;;;;;;5015100;28;20120;-81
2021/09/20 06:22:38;;;;;;;18.67;12.48;;;14.80;99.90;;;;;;5015194;28;20038;-89
2021/09/20 06:25:06;;;;;;;24.08;12.70;;;14.80;99.90;;;;;;5012286;28;20180;-87
2021/09/20 06:27:32;;;;;;;18.70;13.10;;;14.80;99.90;;;;;;5016066;28;20072;-84
2021/09/20 06:29:58;;;;;;;25.40;13.32;;;14.90;99.90;;;;;;5004866;28;20030;-83
2021/09/20 06:32:23;;;;;;;18.73;12.57;;;14.90;99.90;;;;;;5009632;28;20048;-84
2021/09/20 06:34:49;;;;;;;19.38;12.10;;;15.00;99.90;;;;;;5007832;28;20029;-82
2021/09/20 06:37:15;;;;;;;16.85;13.35;;;15.10;99.90;;;;;;5013710;28;20037;-81
2021/09/20 06:39:44;;;;;;;17.63;12.45;;;15.10;99.90;;;;;;4993428;28;20558;-82
2021/09/20 06:42:10;;;;;;;19.45;12.82;;;15.10;99.90;;;;;;4994016;28;20066;-81
2021/09/20 06:44:36;;;;;;;17.17;12.93;;;15.10;99.90;;;;;;5009232;28;20052;-80
2021/09/20 06:47:01;;;;;;;22.10;13.25;;;15.00;99.90;;;;;;5010974;28;20035;-80
2021/09/20 06:49:28;;;;;;;17.73;13.40;;;15.10;99.90;;;;;;5003951;28;20065;-80
2021/09/20 06:51:53;;;;;;;17.75;13.38;;;15.10;99.90;;;;;;5006641;28;20036;-80
2021/09/20 06:54:20;;;;;;;16.40;13.60;;;15.10;99.90;;;;;;4999002;28;20042;-81
2021/09/20 06:56:46;;;;;;;16.77;13.50;;;15.00;99.90;;;;;;5000894;28;20143;-81
2021/09/20 06:59:13;;;;;;;18.83;13.80;;;15.20;99.90;;;;;;4998038;28;20029;-81
2021/09/20 07:01:39;;;;;;;19.77;14.48;;;15.40;99.90;;;;;;5000598;28;20045;-83
2021/09/20 07:04:05;;;;;;;21.42;14.80;;;15.50;99.90;;;;;;5001913;28;20026;-81
2021/09/20 07:06:31;;;;;;;18.33;14.02;;;15.60;99.90;;;;;;5008466;28;20018;-81
2021/09/20 07:08:57;;;;;;;22.80;14.82;;;15.70;99.90;;;;;;5012589;28;20046;-81
2021/09/20 07:11:23;;;;;;;22.30;15.35;;;16.00;99.90;;;;;;4991640;28;20040;-80
2021/09/20 07:13:48;;;;;;;19.67;14.85;;;16.00;99.90;;;;;;5010073;28;20065;-81
2021/09/20 07:16:14;;;;;;;18.80;14.18;;;15.90;99.90;;;;;;5005246;28;20060;-82
2021/09/20 07:18:40;;;;;;;19.20;14.15;;;15.80;99.90;;;;;;5007090;28;20079;-82
2021/09/20 07:21:06;;;;;;;20.77;14.15;;;15.80;99.90;;;;;;5004892;28;20034;-81
2021/09/20 07:23:32;;;;;;;18.08;14.20;;;15.90;99.90;;;;;;4993590;28;20030;-80
2021/09/20 07:25:58;;;;;;;20.98;14.65;;;15.90;99.90;;;;;;4999372;28;20165;-81
2021/09/20 07:28:23;;;;;;;18.50;15.32;;;16.10;99.90;;;;;;5008415;28;20042;-81
2021/09/20 07:30:49;;;;;;;21.38;15.32;;;16.00;99.90;;;;;;5004244;28;20040;-81
2021/09/20 07:33:15;;;;;;;18.55;14.50;;;16.00;99.90;;;;;;5007237;28;20037;-82
2021/09/20 07:35:41;;;;;;;22.00;15.60;;;15.90;99.90;;;;;;5012933;28;20026;-81
2021/09/20 07:38:07;;;;;;;20.83;14.75;;;15.90;99.90;;;;;;5015707;28;20041;-81
2021/09/20 07:40:34;;;;;;;19.92;14.48;;;15.80;99.90;;;;;;5012687;28;20562;-81
2021/09/20 07:43:00;;;;;;;19.75;14.30;;;15.80;99.90;;;;;;5020112;28;20026;-81
2021/09/20 07:45:27;;;;;;;19.75;14.50;;;16.00;99.90;;;;;;5014713;28;20034;-81
2021/09/20 07:47:53;;;;;;;17.00;13.88;;;15.90;99.90;;;;;;5013230;28;20022;-81
2021/09/20 07:50:19;;;;;;;21.27;14.68;;;16.00;99.90;;;;;;5016679;28;20108;-81
2021/09/20 07:52:46;;;;;;;20.15;14.43;;;16.20;99.90;;;;;;5009864;28;20029;-81
2021/09/20 07:55:13;;;;;;;17.90;13.90;;;16.70;99.90;;;;;;5013116;28;20107;-81
2021/09/20 07:57:39;;;;;;;18.98;14.05;;;17.10;99.90;;;;;;5016464;28;20033;-81
2021/09/20 08:00:06;;;;;;;17.92;14.70;;;17.00;99.90;;;;;;5013082;28;20034;-80
2021/09/20 08:02:32;;;;;;;16.63;14.02;;;16.70;99.90;;;;;;4999764;28;20034;-80
2021/09/20 08:04:58;;;;;;;18.10;13.30;;;16.80;99.90;;;;;;5009987;28;20045;-80
2021/09/20 08:07:24;;;;;;;15.18;13.20;;;17.30;99.90;;;;;;5011895;28;20560;-80
2021/09/20 08:09:49;;;;;;;14.80;12.80;;;17.90;99.90;;;;;;5016552;28;20037;-80
2021/09/20 08:12:15;;;;;;;17.45;12.35;;;18.30;99.90;;;;;;5005251;28;20034;-84
2021/09/20 08:14:44;;;;;;;21.17;12.88;;;19.00;99.90;;;;;;5007904;28;20110;-82
2021/09/20 08:17:10;;;;;;;14.35;12.43;;;19.40;99.90;;;;;;4998925;28;20506;-86
2021/09/20 08:19:37;;;;;;;17.63;13.27;;;19.50;99.90;;;;;;5014298;28;20025;-84
2021/09/20 08:22:03;;;;;;;14.80;12.48;;;19.20;99.90;;;;;;4994536;28;20037;-83
2021/09/20 08:24:29;;;;;;;16.10;12.02;;;18.80;99.90;;;;;;5016126;28;20022;-82
2021/09/20 08:26:55;;;;;;;14.68;12.73;;;18.50;99.90;;;;;;5014435;28;20034;-85
2021/09/20 08:29:22;;;;;;;16.77;13.45;;;18.50;99.90;;;;;;5016333;28;20560;-81
2021/09/20 08:31:48;;;;;;;18.35;13.07;;;18.50;99.90;;;;;;5007563;28;20045;-84
2021/09/20 08:34:14;;;;;;;16.02;12.68;;;18.40;99.90;;;;;;5009533;28;20030;-81
2021/09/20 08:36:39;;;;;;;14.98;11.68;;;18.20;99.90;;;;;;5008844;28;20101;-81
2021/09/20 08:39:06;;;;;;;12.57;10.80;;;18.50;99.90;;;;;;5029096;28;20030;-80
2021/09/20 08:41:31;;;;;;;14.52;10.95;;;19.00;99.90;;;;;;5006596;28;20443;-80
2021/09/20 08:43:57;;;;;;;14.05;10.65;;;19.40;99.90;;;;;;5011282;28;20025;-80
2021/09/20 08:46:23;;;;;;;17.60;10.90;;;19.90;99.90;;;;;;5006084;28;20435;-80
2021/09/20 08:48:51;;;;;;;13.93;10.02;;;20.30;99.90;;;;;;5024074;28;20010;-80
2021/09/20 08:51:19;;;;;;;13.05;9.10;;;19.90;99.90;;;;;;5005407;28;20022;-80
2021/09/20 08:53:49;;;;;;;10.73;9.45;;;19.20;99.90;;;;;;5002360;28;20471;-80
2021/09/20 08:56:16;;;;;;;12.60;9.90;;;18.80;99.90;;;;;;5002505;28;20045;-80
2021/09/20 08:58:42;;;;;;;14.13;10.60;;;18.40;99.90;;;;;;5010911;28;20104;-81
2021/09/20 09:01:07;;;;;;;12.15;9.63;;;18.00;99.90;;;;;;5006656;28;20025;-80
2021/09/20 09:03:33;;;;;;;11.68;9.52;;;17.90;99.90;;;;;;5005755;28;20034;-80
2021/09/20 09:06:00;;;;;;;12.38;9.48;;;18.00;99.90;;;;;;5016659;28;20041;-80
2021/09/20 09:08:42;;;;;;;10.68;9.15;;;18.70;99.90;;;;;;5011973;28;20022;-80
2021/09/20 09:11:15;;;;;;;13.00;9.45;;;19.40;99.90;;;;;;5004770;28;20566;-79
2021/09/20 09:13:43;;;;;;;14.43;9.30;;;19.90;99.90;;;;;;5010854;28;20025;-80
2021/09/20 09:16:13;;;;;;;12.73;8.65;;;20.50;99.90;;;;;;5009365;28;20018;-80
2021/09/20 09:19:04;;;;;;;12.63;8.68;;;20.70;99.90;;;;;;5013299;28;20026;-82
2021/09/20 09:21:32;;;;;;;9.25;8.32;;;21.20;99.90;;;;;;5021960;28;20029;-83
2021/09/20 09:24:00;;;;;;;9.38;8.15;;;21.80;99.90;;;;;;5010299;28;20034;-80
2021/09/20 09:26:26;;;;;;;11.68;8.88;;;22.20;99.90;;;;;;5010571;28;20030;-79
2021/09/20 09:29:14;;;;;;;9.88;8.40;;;22.30;99.90;;;;;;5009610;28;20445;-79
2021/09/20 09:31:50;;;;;;;12.90;9.30;;;22.40;99.90;;;;;;5006746;28;20026;-79
2021/09/20 09:34:36;;;;;;;10.07;8.57;;;23.10;99.90;;;;;;5010211;28;20029;-80
2021/09/20 09:37:12;;;;;;;10.10;8.93;;;23.30;99.40;;;;;;5006033;28;20042;-79
2021/09/20 09:39:40;;;;;;;10.68;7.95;;;23.00;99.30;;;;;;5007189;28;20033;-79
2021/09/20 09:42:22;;;;;;;9.75;8.75;;;22.40;99.90;;;;;;5005151;28;20022;-79
2021/09/20 09:44:48;;;;;;;12.52;9.43;;;22.60;99.90;;;;;;5011361;28;20041;-80
2021/09/20 09:47:44;;;;;;;11.20;8.50;;;23.10;99.80;;;;;;5011099;28;20038;-80
2021/09/20 09:50:23;;;;;;;10.77;9.10;;;23.30;99.90;;;;;;5002165;28;20034;-80
2021/09/20 09:52:52;;;;;;;10.27;8.38;;;23.80;99.60;;;;;;5009504;28;20025;-80
2021/09/20 09:55:19;;;;;;;10.80;8.40;;;24.40;98.30;;;;;;5017019;28;20125;-83
2021/09/20 09:57:45;;;;;;;10.43;8.45;;;24.40;97.80;;;;;;5011784;28;20018;-80
2021/09/20 10:00:14;;;;;;;12.82;9.40;;;24.40;97.10;;;;;;5013158;28;20380;-79
2021/09/20 10:02:45;;;;;;;12.13;8.35;;;24.30;97.30;;;;;;5015030;28;20323;-80
2021/09/20 10:05:20;;;;;;;8.67;7.83;;;24.00;97.70;;;;;;5013126;28;20648;-81
2021/09/20 10:07:51;;;;;;;13.40;8.68;;;23.80;97.50;;;;;;5001790;28;20028;-80
2021/09/20 10:10:18;;;;;;;11.52;8.27;;;23.30;97.70;;;;;;5007198;28;20052;-80
2021/09/20 10:12:46;;;;;;;8.40;7.55;;;23.60;97.30;;;;;;5009636;28;20037;-79
2021/09/20 10:15:15;;;;;;;9.30;7.93;;;23.60;96.80;;;;;;5008718;28;20053;-79
2021/09/20 10:17:42;;;;;;;9.20;7.72;;;23.20;98.00;;;;;;5004718;28;20030;-79
2021/09/20 10:20:12;;;;;;;11.35;8.40;;;23.10;98.10;;;;;;5008294;28;20104;-80
2021/09/20 10:22:39;;;;;;;9.98;8.00;;;23.20;97.70;;;;;;5008787;28;20373;-82
2021/09/20 10:25:09;;;;;;;11.52;8.18;;;23.80;96.70;;;;;;5003931;28;20367;-79
2021/09/20 10:27:35;;;;;;;12.48;9.23;;;23.40;96.40;;;;;;5003977;28;20026;-82
2021/09/20 10:30:26;;;;;;;12.15;8.40;;;22.50;97.70;;;;;;5009495;28;21816;-81
2021/09/20 10:32:59;;;;;;;13.38;8.55;;;22.30;98.80;;;;;;4998198;28;20034;-81
2021/09/20 10:35:37;;;;;;;12.18;8.05;;;22.10;99.30;;;;;;5013757;28;20486;-81
2021/09/20 10:38:29;;;;;;;8.30;7.38;;;21.80;98.80;;;;;;5016192;28;20029;-83
2021/09/20 10:41:03;;;;;;;9.50;6.90;;;21.50;98.50;;;;;;5013964;28;20029;-84
2021/09/20 10:43:29;;;;;;;8.15;7.15;;;21.30;98.60;;;;;;4999208;28;20420;-80
2021/09/20 10:45:55;;;;;;;12.90;7.93;;;21.40;98.40;;;;;;5011664;28;20029;-81
2021/09/20 10:48:44;;;;;;;9.52;8.35;;;21.40;99.10;;;;;;5004951;28;20115;-82
2021/09/20 10:51:20;;;;;;;11.75;8.57;;;21.60;98.90;;;;;;5012398;28;20040;-80
2021/09/20 10:53:46;;;;;;;23.98;8.50;;;21.80;99.40;;;;;;5006659;28;20045;-80
2021/09/20 10:56:39;;;;;;;16.85;9.02;;;21.40;99.90;;;;;;5027130;28;20034;-84
2021/09/20 10:59:20;;;;;;;14.25;9.00;;;21.10;99.90;;;;;;5013098;28;20110;-81
2021/09/20 11:02:15;;;;;;;11.90;8.43;;;21.30;99.90;;;;;;5030722;28;20495;-82
2021/09/20 11:04:41;;;;;;;13.90;7.50;;;21.70;99.50;;;;;;5017427;28;20025;-79
2021/09/20 11:07:09;;;;;;;13.10;8.27;;;22.30;97.40;;;;;;5012407;28;20034;-82
2021/09/20 11:09:46;;;;;;;13.57;8.57;;;22.60;97.40;;;;;;5020210;28;20490;-82
2021/09/20 11:12:15;;;;;;;11.38;9.35;;;22.40;97.40;;;;;;5008878;28;20109;-80
2021/09/20 11:15:13;;;;;;;12.27;9.30;;;22.50;97.70;;;;;;5010347;28;20030;-79
2021/09/20 11:17:47;;;;;;;11.85;9.02;;;22.80;97.40;;;;;;4994745;28;20111;-79
2021/09/20 11:20:25;;;;;;;12.60;9.68;;;22.80;97.70;;;;;;5013352;28;20034;-82
2021/09/20 11:23:22;;;;;;;12.15;8.55;;;22.80;97.00;;;;;;5016059;28;20025;-79
2021/09/20 11:26:03;;;;;;;15.82;8.90;;;22.50;97.90;;;;;;5014138;28;20029;-79
2021/09/20 11:28:37;;;;;;;15.30;9.10;;;22.10;98.90;;;;;;5008130;28;20030;-79
2021/09/20 11:31:04;;;;;;;14.00;8.95;;;22.50;98.20;;;;;;5007205;28;20247;-78
2021/09/20 11:33:42;;;;;;;12.35;8.45;;;22.50;97.40;;;;;;5017465;28;20519;-79
2021/09/20 11:36:34;;;;;;;12.07;8.98;;;22.80;97.20;;;;;;5013783;28;20080;-79
2021/09/20 11:39:16;;;;;;;15.33;9.63;;;23.10;96.40;;;;;;5005894;28;20052;-83
2021/09/20 11:41:46;;;;;;;25.10;9.52;;;23.40;96.30;;;;;;5007683;28;20030;-79
2021/09/20 11:44:15;;;;;;;12.93;9.40;;;23.80;95.70;;;;;;5012966;28;20033;-79
2021/09/20 11:46:41;;;;;;;13.52;8.75;;;23.70;95.20;;;;;;5005984;28;20374;-81
2021/09/20 11:49:09;;;;;;;12.85;8.38;;;24.00;95.20;;;;;;5010421;28;20030;-78
2021/09/20 11:51:36;;;;;;;11.00;8.43;;;23.80;95.30;;;;;;5010818;28;20462;-78
2021/09/20 11:54:02;;;;;;;10.23;8.13;;;23.60;95.20;;;;;;5010172;28;20062;-79
2021/09/20 11:56:29;;;;;;;15.77;8.68;;;23.60;95.60;;;;;;5006080;28;20506;-85
2021/09/20 11:58:57;;;;;;;19.25;8.75;;;23.20;95.80;;;;;;5011020;28;20044;-82
2021/09/20 12:01:25;;;;;;;13.35;8.52;;;23.80;95.60;;;;;;5009443;28;20060;-82
2021/09/20 12:03:56;;;;;;;14.60;8.63;;;24.30;94.80;;;;;;5014645;28;20026;-82
2021/09/20 12:06:30;;;;;;;21.15;8.93;;;24.40;94.10;;;;;;5007243;28;20028;-83
2021/09/20 12:08:57;;;;;;;16.00;8.23;;;24.20;94.40;;;;;;5023435;28;22039;-80
2021/09/20 12:11:24;;;;;;;21.08;7.95;;;24.20;94.40;;;;;;5009752;28;20506;-83
2021/09/20 12:13:51;;;;;;;14.85;7.20;;;24.50;94.20;;;;;;5009593;28;20033;-81
2021/09/20 12:16:17;;;;;;;14.80;8.55;;;24.60;94.10;;;;;;5004532;28;20026;-78
2021/09/20 12:18:42;;;;;;;10.00;8.38;;;24.10;94.80;;;;;;4994256;28;20026;-79
2021/09/20 12:21:12;;;;;;;14.23;8.05;;;24.20;94.50;;;;;;5009684;28;20041;-78
2021/09/20 12:23:40;;;;;;;9.50;6.63;;;25.10;94.20;;;;;;5009716;28;20025;-79
2021/09/20 12:26:10;;;;;;;11.38;6.63;;;25.40;92.70;;;;;;5009730;28;20030;-81
2021/09/20 12:28:40;;;;;;;9.38;6.78;;;25.00;92.70;;;;;;5004414;28;20081;-79
2021/09/20 12:31:20;;;;;;;10.57;7.63;;;25.40;92.00;;;;;;5006827;28;20062;-79
2021/09/20 12:33:56;;;;;;;7.93;7.20;;;26.20;91.10;;;;;;5007469;28;20026;-79